Time;durP1;ratioP1;P1;durP2;ratioP2;P2;SDS_P1;SDS_P2;PMS_P1;PMS_P2;Temp;Humidity;BMP_temperature;BMP_pressure;BME280_temperature;BME280_humidity;BME280_pressure;Samples;Min_cycle;Max_cycle;Signal;HPM_P1;HPM_P2
2023/03/30 00:02:22;;;;;;;15.48;7.95;;;9.10;97.00;;;;;;5072043;28;20220;-80
2023/03/30 00:04:51;;;;;;;15.95;8.88;;;9.10;97.10;;;;;;5071953;28;20237;-80
2023/03/30 00:07:18;;;;;;;11.43;8.95;;;9.20;97.10;;;;;;5073111;28;20193;-79
2023/03/30 00:09:45;;;;;;;10.98;8.50;;;9.20;97.10;;;;;;5073254;28;20165;-80
2023/03/30 00:12:19;;;;;;;12.65;9.05;;;9.20;97.30;;;;;;5071824;28;20200;-80
2023/03/30 00:14:44;;;;;;;16.27;9.18;;;9.20;97.40;;;;;;5073203;28;20224;-80
2023/03/30 00:17:11;;;;;;;13.10;9.70;;;9.30;97.20;;;;;;5073263;28;20201;-80
2023/03/30 00:19:37;;;;;;;14.20;10.20;;;9.30;97.10;;;;;;5072051;28;20579;-81
2023/03/30 00:22:05;;;;;;;13.60;9.00;;;9.30;97.20;;;;;;5076728;28;20751;-80
2023/03/30 00:24:31;;;;;;;15.65;9.25;;;9.30;97.20;;;;;;5075641;28;20181;-80
2023/03/30 00:26:56;;;;;;;9.77;7.60;;;9.20;97.20;;;;;;5076779;28;20192;-81
2023/03/30 00:29:22;;;;;;;12.50;9.10;;;9.20;97.20;;;;;;5076885;28;20175;-80
2023/03/30 00:31:48;;;;;;;13.20;8.67;;;9.20;97.30;;;;;;5092197;28;20669;-80
2023/03/30 00:34:14;;;;;;;10.53;7.97;;;9.10;97.80;;;;;;5076804;28;20204;-79
2023/03/30 00:36:40;;;;;;;11.93;8.20;;;9.00;98.00;;;;;;5076561;28;20161;-80
2023/03/30 00:39:07;;;;;;;13.90;8.90;;;9.00;98.10;;;;;;5076604;28;20589;-81
2023/03/30 00:41:35;;;;;;;12.68;7.82;;;9.10;97.90;;;;;;5075069;28;20216;-81
2023/03/30 00:44:04;;;;;;;13.75;8.68;;;9.00;98.20;;;;;;5076611;28;20198;-80
2023/03/30 00:46:31;;;;;;;10.95;8.95;;;9.00;98.30;;;;;;5075148;28;20181;-80
2023/03/30 00:49:03;;;;;;;15.68;8.70;;;9.00;98.40;;;;;;5076923;28;20196;-79
2023/03/30 00:51:32;;;;;;;12.35;9.02;;;8.90;98.90;;;;;;5075093;28;20181;-80
2023/03/30 00:54:06;;;;;;;14.32;8.82;;;8.90;99.10;;;;;;5075141;28;20177;-79
2023/03/30 00:56:32;;;;;;;12.68;9.65;;;8.90;99.10;;;;;;5075095;28;20260;-80
2023/03/30 00:59:01;;;;;;;18.02;9.40;;;8.80;99.40;;;;;;5075088;28;20200;-80
2023/03/30 01:01:28;;;;;;;12.32;9.32;;;8.70;99.70;;;;;;5076292;28;20208;-80
2023/03/30 01:03:58;;;;;;;12.40;9.15;;;8.80;99.70;;;;;;5074941;28;20722;-80
2023/03/30 01:06:28;;;;;;;15.00;10.73;;;8.70;99.90;;;;;;5076033;28;20211;-80
2023/03/30 01:08:56;;;;;;;13.02;9.90;;;8.80;99.90;;;;;;5076594;28;20588;-80
2023/03/30 01:11:22;;;;;;;14.85;10.82;;;8.70;99.90;;;;;;5075159;28;20729;-80
2023/03/30 01:14:10;;;;;;;13.00;9.30;;;8.60;99.90;;;;;;5075993;28;20240;-80
2023/03/30 01:16:45;;;;;;;16.08;9.77;;;8.60;99.90;;;;;;5075881;28;20661;-79
2023/03/30 01:19:37;;;;;;;16.95;10.30;;;8.60;99.90;;;;;;5076086;28;20169;-79
2023/03/30 01:22:33;;;;;;;13.70;10.23;;;8.70;99.90;;;;;;5091382;28;20595;-80
2023/03/30 01:25:10;;;;;;;15.77;10.25;;;8.50;99.90;;;;;;5079390;28;20192;-80
2023/03/30 01:28:01;;;;;;;13.18;10.20;;;8.50;99.90;;;;;;5091353;28;20661;-79
2023/03/30 01:30:54;;;;;;;15.88;10.40;;;8.50;99.90;;;;;;5075724;28;20527;-79
2023/03/30 01:33:42;;;;;;;13.82;9.45;;;8.50;99.90;;;;;;5074834;28;20205;-79
2023/03/30 01:36:36;;;;;;;12.75;9.75;;;8.30;99.90;;;;;;5075649;28;20208;-79
2023/03/30 01:39:32;;;;;;;12.20;9.77;;;8.20;99.90;;;;;;5075614;28;20235;-79
2023/03/30 01:42:18;;;;;;;16.63;8.88;;;8.20;99.90;;;;;;5075324;28;20235;-79
2023/03/30 01:45:07;;;;;;;14.40;8.38;;;8.10;99.90;;;;;;5075430;28;20162;-79
2023/03/30 01:47:57;;;;;;;11.77;9.23;;;8.00;99.90;;;;;;5074064;28;20618;-79
2023/03/30 01:50:29;;;;;;;11.57;8.57;;;8.00;99.90;;;;;;5074111;28;20254;-79
2023/03/30 01:53:21;;;;;;;11.15;8.70;;;7.90;99.90;;;;;;5075148;28;20189;-81
2023/03/30 01:56:11;;;;;;;13.13;9.35;;;7.90;99.90;;;;;;5073585;28;20191;-79
2023/03/30 01:58:49;;;;;;;11.30;8.75;;;7.80;99.90;;;;;;5075614;28;20342;-79
2023/03/30 02:01:19;;;;;;;15.18;8.50;;;7.80;99.90;;;;;;5073796;28;20285;-79
2023/03/30 02:03:49;;;;;;;10.55;9.05;;;7.80;99.90;;;;;;5075407;28;20201;-81
2023/03/30 02:06:45;;;;;;;13.65;8.80;;;7.90;99.90;;;;;;5075019;28;20199;-80
2023/03/30 02:09:16;;;;;;;11.10;8.43;;;7.90;99.90;;;;;;5075053;28;20174;-81
2023/03/30 02:11:46;;;;;;;13.20;9.15;;;7.90;99.90;;;;;;5074811;28;20165;-80
2023/03/30 02:14:16;;;;;;;12.50;8.77;;;8.00;99.90;;;;;;5073465;28;20232;-80
2023/03/30 02:16:47;;;;;;;12.23;9.32;;;8.00;99.90;;;;;;5073242;28;20235;-80
2023/03/30 02:19:17;;;;;;;11.18;7.57;;;7.90;99.90;;;;;;5074802;28;20646;-79
2023/03/30 02:21:43;;;;;;;13.35;8.63;;;7.90;99.90;;;;;;5073198;28;20723;-80
2023/03/30 02:24:17;;;;;;;13.82;9.27;;;7.90;99.90;;;;;;5074667;28;20634;-79
2023/03/30 02:26:48;;;;;;;12.25;8.52;;;8.00;99.90;;;;;;5074718;28;20164;-81
2023/03/30 02:29:15;;;;;;;12.80;8.43;;;8.00;99.90;;;;;;5074571;28;20227;-80
2023/03/30 02:31:46;;;;;;;14.10;7.57;;;7.90;99.90;;;;;;5074336;28;20193;-80
2023/03/30 02:34:27;;;;;;;14.15;9.07;;;8.00;99.90;;;;;;5074535;28;20598;-80
2023/03/30 02:37:31;;;;;;;14.73;9.50;;;7.90;99.90;;;;;;5074269;28;20189;-79
2023/03/30 02:40:12;;;;;;;11.50;8.30;;;8.00;99.90;;;;;;5072365;28;20185;-79
2023/03/30 02:42:50;;;;;;;11.50;7.55;;;7.90;99.90;;;;;;5074500;28;20216;-80
2023/03/30 02:45:46;;;;;;;13.32;8.75;;;7.80;99.90;;;;;;5073659;28;20312;-80
2023/03/30 02:48:27;;;;;;;15.32;9.82;;;7.80;99.90;;;;;;5074574;28;20234;-80
2023/03/30 02:51:02;;;;;;;10.00;8.27;;;7.90;99.90;;;;;;5072924;28;20660;-80
2023/03/30 02:53:32;;;;;;;12.90;8.40;;;7.90;99.90;;;;;;5073977;28;20231;-80
2023/03/30 02:56:10;;;;;;;14.13;8.70;;;7.90;99.90;;;;;;5072910;28;20638;-80
2023/03/30 02:58:41;;;;;;;10.60;8.40;;;7.90;99.90;;;;;;5073884;28;20192;-79
2023/03/30 03:01:18;;;;;;;15.90;8.52;;;7.90;99.90;;;;;;5072633;28;20213;-79
2023/03/30 03:03:47;;;;;;;11.05;8.70;;;7.80;99.90;;;;;;5072859;28;20201;-80
2023/03/30 03:06:14;;;;;;;12.15;7.88;;;7.80;99.90;;;;;;5072662;28;20173;-80
2023/03/30 03:08:42;;;;;;;10.35;8.32;;;7.90;99.90;;;;;;5074232;28;20596;-79
2023/03/30 03:11:09;;;;;;;14.15;8.70;;;7.90;99.90;;;;;;5072585;28;20173;-81
2023/03/30 03:13:36;;;;;;;13.45;8.57;;;7.80;99.90;;;;;;5073697;28;20611;-80
2023/03/30 03:16:03;;;;;;;12.88;8.52;;;7.90;99.90;;;;;;5073848;28;20197;-79
2023/03/30 03:18:30;;;;;;;14.27;8.07;;;7.90;99.90;;;;;;5074225;28;20208;-79
2023/03/30 03:20:56;;;;;;;14.02;9.45;;;7.90;99.90;;;;;;5073737;28;20643;-81
2023/03/30 03:23:22;;;;;;;10.85;8.25;;;7.90;99.90;;;;;;5073939;28;20341;-79
2023/03/30 03:25:48;;;;;;;14.88;9.70;;;7.80;99.90;;;;;;5073703;28;20173;-81
2023/03/30 03:28:14;;;;;;;14.10;8.77;;;7.80;99.90;;;;;;5072479;28;20201;-79
2023/03/30 03:30:41;;;;;;;15.90;10.30;;;7.80;99.90;;;;;;5073230;28;20192;-81
2023/03/30 03:33:07;;;;;;;14.70;9.63;;;7.80;99.90;;;;;;5072372;28;20461;-80
2023/03/30 03:35:38;;;;;;;16.50;11.37;;;7.80;99.90;;;;;;5072490;28;20177;-82
2023/03/30 03:38:06;;;;;;;14.88;9.45;;;7.80;99.90;;;;;;5072452;28;20434;-81
2023/03/30 03:40:32;;;;;;;12.45;9.90;;;7.80;99.90;;;;;;5073713;28;20197;-79
2023/03/30 03:43:01;;;;;;;10.43;8.98;;;7.90;99.90;;;;;;5072940;28;20362;-82
2023/03/30 03:45:27;;;;;;;12.30;9.80;;;8.00;99.90;;;;;;5072121;28;20181;-79
2023/03/30 03:47:53;;;;;;;21.43;10.37;;;8.00;99.90;;;;;;5071981;28;20201;-79
2023/03/30 03:50:19;;;;;;;14.40;10.27;;;8.00;99.90;;;;;;5072513;28;20410;-79
2023/03/30 03:52:45;;;;;;;15.15;9.90;;;8.00;99.90;;;;;;5072194;28;20442;-79
2023/03/30 03:55:11;;;;;;;11.93;9.13;;;8.00;99.90;;;;;;5072401;28;20654;-80
2023/03/30 03:57:37;;;;;;;16.08;9.00;;;8.00;99.90;;;;;;5077090;28;20776;-79
2023/03/30 04:00:04;;;;;;;11.60;8.55;;;8.10;99.90;;;;;;5077394;28;20169;-79
2023/03/30 04:02:30;;;;;;;14.95;9.52;;;8.20;99.90;;;;;;5075919;28;20205;-79
2023/03/30 04:04:56;;;;;;;12.40;9.50;;;8.20;99.90;;;;;;5092958;28;20276;-79
2023/03/30 04:07:25;;;;;;;12.73;9.50;;;8.20;99.90;;;;;;5075814;28;20205;-79
2023/03/30 04:09:50;;;;;;;15.57;10.00;;;8.20;99.90;;;;;;5074887;28;20173;-80
2023/03/30 04:12:16;;;;;;;13.53;10.07;;;8.30;99.90;;;;;;5077060;28;20204;-80
2023/03/30 04:14:41;;;;;;;14.10;10.13;;;8.30;99.90;;;;;;5077071;28;20228;-79
2023/03/30 04:17:07;;;;;;;13.33;9.37;;;8.40;99.90;;;;;;5089408;28;20250;-79
2023/03/30 04:19:34;;;;;;;14.90;10.00;;;8.50;99.90;;;;;;5084059;28;20178;-80
2023/03/30 04:22:01;;;;;;;12.30;9.48;;;8.60;99.90;;;;;;5080943;28;20848;-79
2023/03/30 04:24:28;;;;;;;10.00;8.13;;;8.60;99.90;;;;;;5084084;28;20193;-79
2023/03/30 04:26:56;;;;;;;12.05;8.82;;;8.70;99.90;;;;;;5096051;28;20223;-81
2023/03/30 04:29:22;;;;;;;13.73;9.00;;;8.60;99.90;;;;;;5094278;28;20259;-80
2023/03/30 04:31:49;;;;;;;16.42;9.82;;;8.60;99.90;;;;;;5093512;28;20172;-79
2023/03/30 04:34:20;;;;;;;12.40;9.13;;;8.50;99.90;;;;;;5096176;28;20202;-79
2023/03/30 04:36:46;;;;;;;15.57;10.60;;;8.50;99.90;;;;;;5094689;28;20190;-81
2023/03/30 04:39:12;;;;;;;11.13;9.43;;;8.40;99.90;;;;;;5095352;28;20183;-79
2023/03/30 04:41:40;;;;;;;11.33;9.00;;;8.40;99.90;;;;;;5095212;28;20208;-80
2023/03/30 04:44:09;;;;;;;23.20;14.50;;;8.30;99.90;;;;;;5093818;28;20180;-80
2023/03/30 04:46:35;;;;;;;54.10;34.10;;;8.40;99.90;;;;;;5077537;28;20177;-80
2023/03/30 04:49:02;;;;;;;14.95;9.45;;;8.40;99.90;;;;;;5072545;28;20547;-81
2023/03/30 04:51:28;;;;;;;14.15;10.00;;;8.40;99.90;;;;;;5079368;28;20215;-80
2023/03/30 04:53:54;;;;;;;11.93;10.05;;;8.40;99.90;;;;;;5091063;28;20169;-80
2023/03/30 04:56:20;;;;;;;16.13;9.77;;;8.40;99.90;;;;;;5092430;28;20191;-81
2023/03/30 04:58:46;;;;;;;12.80;10.45;;;8.40;99.90;;;;;;5091023;28;20228;-81
2023/03/30 05:01:12;;;;;;;14.03;9.87;;;8.40;99.90;;;;;;5095544;28;20715;-81
2023/03/30 05:03:38;;;;;;;12.50;9.33;;;8.30;99.90;;;;;;5095211;28;20464;-81
2023/03/30 05:06:04;;;;;;;13.87;10.07;;;8.20;99.90;;;;;;5095919;28;20177;-81
2023/03/30 05:08:31;;;;;;;13.47;9.37;;;8.20;99.90;;;;;;5094424;28;20460;-80
2023/03/30 05:11:01;;;;;;;12.52;8.68;;;8.10;99.90;;;;;;5095852;28;20180;-79
2023/03/30 05:13:27;;;;;;;12.73;9.48;;;8.10;99.90;;;;;;5092937;28;20609;-81
2023/03/30 05:15:54;;;;;;;12.57;9.77;;;8.00;99.90;;;;;;5095031;28;20552;-81
2023/03/30 05:18:20;;;;;;;12.48;9.23;;;8.10;99.90;;;;;;5093269;28;20741;-81
2023/03/30 05:20:46;;;;;;;12.93;9.77;;;8.10;99.90;;;;;;5096910;28;20216;-81
2023/03/30 05:23:11;;;;;;;12.80;9.50;;;8.10;99.90;;;;;;5110335;28;20464;-80
2023/03/30 05:25:37;;;;;;;11.37;9.90;;;8.10;99.90;;;;;;5113632;28;20513;-81
2023/03/30 05:28:03;;;;;;;11.33;8.43;;;8.10;99.90;;;;;;5104664;28;20570;-81
2023/03/30 05:30:29;;;;;;;13.10;9.17;;;8.10;99.90;;;;;;5103486;28;20173;-79
2023/03/30 05:32:55;;;;;;;13.43;10.70;;;8.00;99.90;;;;;;5088184;28;20219;-80
2023/03/30 05:35:21;;;;;;;12.60;9.67;;;8.00;99.90;;;;;;5091672;28;20443;-79
2023/03/30 05:37:48;;;;;;;16.50;10.83;;;7.90;99.90;;;;;;5096150;28;20559;-81
2023/03/30 05:40:14;;;;;;;21.30;11.80;;;7.90;99.90;;;;;;5094361;28;20217;-81
2023/03/30 05:42:40;;;;;;;10.85;9.25;;;7.90;99.90;;;;;;5093149;28;20204;-80
2023/03/30 05:45:07;;;;;;;14.27;10.13;;;7.90;99.90;;;;;;5095108;28;20653;-79
2023/03/30 05:47:34;;;;;;;14.40;10.55;;;7.90;99.90;;;;;;5093713;28;20217;-80
2023/03/30 05:50:01;;;;;;;13.43;9.65;;;7.90;99.90;;;;;;5093673;28;20251;-80
2023/03/30 05:52:27;;;;;;;13.35;9.60;;;7.90;99.90;;;;;;5098337;28;20207;-80
2023/03/30 05:54:52;;;;;;;13.05;9.32;;;8.00;99.90;;;;;;5108695;28;20180;-79
2023/03/30 05:57:18;;;;;;;13.27;9.90;;;7.90;99.90;;;;;;5073911;28;20296;-80
2023/03/30 05:59:44;;;;;;;16.13;10.37;;;8.00;99.90;;;;;;5088703;28;20181;-81
2023/03/30 06:02:11;;;;;;;13.13;9.87;;;8.00;99.90;;;;;;5090842;28;20273;-79
2023/03/30 06:04:37;;;;;;;13.15;10.48;;;7.80;99.90;;;;;;5092715;28;20409;-79
2023/03/30 06:07:03;;;;;;;12.88;9.32;;;7.90;99.90;;;;;;5091788;28;20285;-82
2023/03/30 06:09:29;;;;;;;15.10;10.00;;;7.90;99.90;;;;;;5090797;28;20210;-79
2023/03/30 06:11:56;;;;;;;14.90;10.23;;;7.90;99.90;;;;;;5091570;28;20236;-79
2023/03/30 06:14:21;;;;;;;15.68;11.40;;;8.00;99.90;;;;;;5092044;28;20242;-80
2023/03/30 06:16:47;;;;;;;17.03;11.07;;;8.00;99.90;;;;;;5088351;28;20181;-80
2023/03/30 06:19:13;;;;;;;16.47;12.07;;;7.90;99.90;;;;;;5098326;28;20176;-80
2023/03/30 06:21:39;;;;;;;16.83;10.83;;;7.90;99.90;;;;;;5104438;27;20449;-79
2023/03/30 06:24:06;;;;;;;14.05;10.70;;;7.90;99.90;;;;;;5090346;28;20228;-79
2023/03/30 06:26:31;;;;;;;15.60;10.93;;;8.00;99.90;;;;;;5094857;28;20764;-80
2023/03/30 06:28:57;;;;;;;14.07;10.23;;;8.10;99.90;;;;;;5082064;28;20199;-80
2023/03/30 06:31:23;;;;;;;15.37;11.60;;;8.30;99.90;;;;;;5102250;28;20202;-79
2023/03/30 06:33:50;;;;;;;13.40;9.23;;;8.40;99.90;;;;;;5104095;28;20203;-79
2023/03/30 06:36:15;;;;;;;11.77;9.90;;;8.60;99.90;;;;;;5073658;28;20193;-80
2023/03/30 06:38:45;;;;;;;14.47;10.17;;;8.60;99.90;;;;;;5091056;28;20307;-81
2023/03/30 06:41:11;;;;;;;11.80;9.68;;;8.80;99.90;;;;;;5091662;28;20513;-79
2023/03/30 06:43:38;;;;;;;12.60;10.38;;;8.90;99.90;;;;;;5103119;28;20204;-82
2023/03/30 06:46:04;;;;;;;12.88;9.25;;;9.00;99.90;;;;;;5094950;28;20184;-79
2023/03/30 06:48:30;;;;;;;11.27;10.02;;;9.00;99.90;;;;;;5089530;28;20204;-79
2023/03/30 06:50:56;;;;;;;14.87;9.13;;;9.20;99.90;;;;;;5087771;28;20253;-80
2023/03/30 06:53:23;;;;;;;11.52;9.18;;;9.20;99.90;;;;;;5089048;28;20207;-79
2023/03/30 06:55:53;;;;;;;10.18;9.18;;;9.30;99.90;;;;;;5088807;28;20301;-82
2023/03/30 06:58:19;;;;;;;13.52;9.75;;;9.40;99.90;;;;;;5088869;28;20296;-79
2023/03/30 07:00:46;;;;;;;11.90;9.83;;;9.50;99.90;;;;;;5088604;28;20291;-79
2023/03/30 07:03:11;;;;;;;12.10;9.00;;;9.50;99.90;;;;;;5085271;28;20993;-81
2023/03/30 07:05:37;;;;;;;12.80;9.23;;;9.50;99.90;;;;;;5089086;28;20263;-80
2023/03/30 07:08:04;;;;;;;15.10;10.30;;;9.60;99.90;;;;;;5087920;28;20237;-80
2023/03/30 07:10:30;;;;;;;11.30;9.00;;;9.60;99.90;;;;;;5086826;28;20455;-81
2023/03/30 07:12:56;;;;;;;13.45;9.70;;;9.80;99.90;;;;;;5089353;28;20209;-81
2023/03/30 07:15:23;;;;;;;12.63;9.80;;;9.80;99.90;;;;;;5091175;28;20769;-79
2023/03/30 07:17:49;;;;;;;11.30;9.40;;;9.80;99.90;;;;;;5093318;28;20204;-80
2023/03/30 07:20:15;;;;;;;12.07;9.30;;;9.80;99.90;;;;;;5109060;28;20175;-81
2023/03/30 07:22:41;;;;;;;13.50;9.70;;;9.80;99.90;;;;;;5090204;28;20862;-81
2023/03/30 07:25:08;;;;;;;11.85;10.32;;;9.90;99.90;;;;;;5091076;28;20188;-79
2023/03/30 07:27:36;;;;;;;10.30;9.20;;;9.90;99.90;;;;;;5083808;28;20291;-81
2023/03/30 07:30:05;;;;;;;9.68;8.68;;;10.00;99.80;;;;;;5086674;28;20188;-80
2023/03/30 07:32:31;;;;;;;12.65;9.65;;;10.00;99.90;;;;;;5094418;28;20191;-81
2023/03/30 07:34:57;;;;;;;14.67;10.10;;;10.10;99.90;;;;;;5094821;28;20653;-82
2023/03/30 07:37:23;;;;;;;13.60;10.40;;;10.30;99.90;;;;;;5087143;28;20287;-81
2023/03/30 07:39:49;;;;;;;12.60;9.07;;;10.40;99.90;;;;;;5092333;28;20203;-79
2023/03/30 07:42:15;;;;;;;13.77;11.00;;;10.50;99.80;;;;;;5084912;28;20754;-81
2023/03/30 07:44:41;;;;;;;15.73;10.30;;;10.70;99.30;;;;;;5084680;28;20421;-81
2023/03/30 07:47:07;;;;;;;11.00;9.10;;;10.80;99.90;;;;;;5088561;28;20468;-79
2023/03/30 07:49:33;;;;;;;9.73;7.57;;;11.00;99.40;;;;;;5082002;28;20657;-81
2023/03/30 07:52:00;;;;;;;13.38;8.80;;;11.10;99.00;;;;;;5082188;28;20449;-81
2023/03/30 07:54:25;;;;;;;11.73;8.85;;;11.10;99.00;;;;;;5084983;28;20191;-82
2023/03/30 07:56:51;;;;;;;10.67;7.50;;;11.20;98.90;;;;;;5084055;28;20669;-82
2023/03/30 07:59:19;;;;;;;11.87;9.90;;;11.30;99.30;;;;;;5089063;28;20241;-81
2023/03/30 08:01:45;;;;;;;32.20;19.08;;;11.40;99.00;;;;;;5085311;28;20551;-80
2023/03/30 08:04:13;;;;;;;11.93;8.90;;;11.40;98.60;;;;;;5090505;28;20188;-80
2023/03/30 08:06:39;;;;;;;12.02;9.55;;;11.50;98.70;;;;;;5088227;28;21469;-81
2023/03/30 08:09:05;;;;;;;14.60;8.90;;;11.60;98.80;;;;;;5093248;28;20179;-82
2023/03/30 08:11:31;;;;;;;12.20;9.10;;;11.60;98.60;;;;;;5085416;28;20665;-79
2023/03/30 08:13:57;;;;;;;18.40;10.07;;;11.60;98.70;;;;;;5083811;28;20228;-79
2023/03/30 08:16:23;;;;;;;16.00;10.40;;;11.80;98.90;;;;;;5075410;28;20196;-81
2023/03/30 08:18:48;;;;;;;6.73;5.20;;;12.00;98.30;;;;;;5078945;28;20208;-79
2023/03/30 08:21:14;;;;;;;10.30;9.30;;;12.00;98.60;;;;;;5077984;28;20216;-79
2023/03/30 08:23:40;;;;;;;12.57;9.60;;;12.10;98.60;;;;;;5077149;28;20314;-79
2023/03/30 08:26:06;;;;;;;10.83;7.80;;;12.20;97.90;;;;;;5073134;28;20549;-79
2023/03/30 08:28:32;;;;;;;15.43;9.77;;;12.30;98.40;;;;;;5100330;28;20188;-79
2023/03/30 08:31:06;;;;;;;13.20;9.57;;;12.50;98.60;;;;;;5087837;28;20486;-81
2023/03/30 08:33:31;;;;;;;10.67;7.50;;;12.90;98.00;;;;;;5075262;28;20826;-79
2023/03/30 08:35:58;;;;;;;10.93;9.00;;;13.50;97.50;;;;;;5086228;28;20413;-81
2023/03/30 08:38:24;;;;;;;11.10;9.67;;;14.40;96.60;;;;;;5083191;28;20197;-80
2023/03/30 08:40:50;;;;;;;15.70;8.13;;;15.20;95.30;;;;;;5087597;28;20460;-80
2023/03/30 08:43:28;;;;;;;11.00;9.20;;;15.50;94.40;;;;;;5091372;28;20457;-82
2023/03/30 08:45:57;;;;;;;11.17;7.67;;;16.00;94.00;;;;;;5089400;28;20428;-82
2023/03/30 08:48:26;;;;;;;13.90;8.67;;;16.50;93.70;;;;;;5092007;28;20476;-82
2023/03/30 08:50:55;;;;;;;13.30;9.63;;;16.50;92.80;;;;;;5094066;28;20439;-82
2023/03/30 08:53:21;;;;;;;14.10;9.80;;;16.40;93.00;;;;;;5094200;28;20452;-82
2023/03/30 08:56:02;;;;;;;11.53;9.77;;;16.30;93.00;;;;;;5092920;28;20496;-82
2023/03/30 08:58:43;;;;;;;11.77;8.10;;;16.50;92.60;;;;;;5087259;28;20459;-82
2023/03/30 09:01:21;;;;;;;10.50;9.20;;;16.40;92.80;;;;;;5090245;28;20594;-81
2023/03/30 09:04:00;;;;;;;11.70;10.47;;;16.40;92.70;;;;;;5089581;28;21231;-81
2023/03/30 09:06:32;;;;;;;10.80;9.70;;;16.40;92.60;;;;;;5084079;28;20630;-82
2023/03/30 09:08:58;;;;;;;10.20;9.13;;;16.20;92.70;;;;;;5078415;28;20913;-81
2023/03/30 09:11:35;;;;;;;11.47;10.00;;;16.10;93.40;;;;;;5082614;28;20536;-81
2023/03/30 09:14:05;;;;;;;11.30;9.53;;;16.10;93.40;;;;;;5074144;28;20651;-83
2023/03/30 09:16:41;;;;;;;11.70;9.20;;;16.00;93.40;;;;;;5084066;28;20417;-83
2023/03/30 09:19:15;;;;;;;11.67;9.37;;;16.10;93.20;;;;;;5081187;28;20536;-82
2023/03/30 09:21:43;;;;;;;15.93;9.80;;;16.30;93.50;;;;;;5100403;28;20474;-82
2023/03/30 09:24:14;;;;;;;14.67;11.03;;;16.20;93.20;;;;;;5086320;28;20435;-84
2023/03/30 09:27:11;;;;;;;13.40;9.80;;;16.00;93.10;;;;;;5086438;28;20757;-83
2023/03/30 09:29:48;;;;;;;13.13;10.23;;;15.70;93.70;;;;;;5084022;28;21326;-83
2023/03/30 09:32:31;;;;;;;11.43;9.90;;;15.50;93.80;;;;;;5093469;28;20440;-81
2023/03/30 09:35:06;;;;;;;11.47;9.03;;;15.30;94.40;;;;;;5093397;28;20452;-83
2023/03/30 09:37:34;;;;;;;9.90;8.90;;;15.10;94.40;;;;;;5087181;28;20891;-81
2023/03/30 09:40:28;;;;;;;9.03;8.10;;;15.00;94.70;;;;;;5090336;28;20802;-82
2023/03/30 09:43:15;;;;;;;27.90;18.43;;;14.80;95.20;;;;;;5084952;28;20460;-81
2023/03/30 09:45:43;;;;;;;10.83;9.73;;;14.60;95.30;;;;;;5090134;28;20441;-82
2023/03/30 09:48:09;;;;;;;12.37;9.53;;;14.50;95.30;;;;;;5090445;28;20449;-80
2023/03/30 09:50:41;;;;;;;10.10;9.07;;;14.50;95.70;;;;;;5086052;28;20432;-80
2023/03/30 09:53:25;;;;;;;12.17;9.30;;;14.50;95.60;;;;;;5087287;28;20449;-80
2023/03/30 09:56:00;;;;;;;14.27;9.43;;;14.60;95.60;;;;;;5089055;28;20428;-80
2023/03/30 09:58:32;;;;;;;12.67;8.77;;;14.60;95.70;;;;;;5090026;28;21027;-81
2023/03/30 10:01:11;;;;;;;10.83;8.50;;;14.70;96.40;;;;;;5089159;28;20472;-81
2023/03/30 10:03:39;;;;;;;10.17;8.60;;;14.90;95.20;;;;;;5087116;28;20510;-82
2023/03/30 10:06:06;;;;;;;13.43;8.30;;;14.80;95.10;;;;;;5088918;28;20494;-81
2023/03/30 10:08:40;;;;;;;11.50;8.73;;;14.90;95.10;;;;;;5086649;28;20449;-82
2023/03/30 10:11:06;;;;;;;13.57;9.17;;;15.00;95.40;;;;;;5097799;28;20421;-80
2023/03/30 10:13:36;;;;;;;9.23;6.67;;;15.10;95.70;;;;;;5088472;28;20476;-81
2023/03/30 10:16:32;;;;;;;10.10;7.23;;;15.10;95.10;;;;;;5089822;28;20425;-80
2023/03/30 10:19:03;;;;;;;9.90;7.10;;;15.20;95.90;;;;;;5084333;28;20528;-81
2023/03/30 10:21:31;;;;;;;8.93;7.63;;;15.40;94.40;;;;;;5090260;28;20471;-82
2023/03/30 10:24:17;;;;;;;25.47;18.67;;;15.40;94.10;;;;;;5093035;28;20788;-82
2023/03/30 10:26:49;;;;;;;10.80;6.97;;;15.40;94.30;;;;;;5088757;28;20939;-81
2023/03/30 10:29:22;;;;;;;12.50;6.70;;;15.40;94.50;;;;;;5085519;28;20418;-81
2023/03/30 10:31:56;;;;;;;9.17;7.50;;;15.50;94.40;;;;;;5082842;28;20413;-82
2023/03/30 10:34:34;;;;;;;8.40;7.50;;;15.60;94.30;;;;;;5077276;28;20472;-82
2023/03/30 10:37:00;;;;;;;10.17;7.00;;;15.60;94.40;;;;;;5085959;28;20456;-82
2023/03/30 10:39:32;;;;;;;9.70;6.57;;;15.70;94.30;;;;;;5097668;28;20433;-81
2023/03/30 10:42:04;;;;;;;8.50;6.67;;;15.90;94.50;;;;;;5090011;28;20672;-82
2023/03/30 10:44:33;;;;;;;6.60;5.90;;;16.20;93.60;;;;;;5088763;28;20549;-81
2023/03/30 10:47:15;;;;;;;8.40;6.50;;;16.40;93.10;;;;;;5091403;28;20453;-83
2023/03/30 10:50:15;;;;;;;8.20;7.10;;;16.60;93.50;;;;;;5086379;28;20437;-81
2023/03/30 10:52:44;;;;;;;8.70;6.70;;;16.90;93.40;;;;;;5082325;28;20470;-82
2023/03/30 10:55:28;;;;;;;7.83;5.70;;;17.10;93.10;;;;;;5085149;28;20539;-82
2023/03/30 10:58:03;;;;;;;6.93;6.13;;;17.20;92.10;;;;;;5079993;28;20554;-81
2023/03/30 11:00:42;;;;;;;6.10;5.57;;;17.00;92.30;;;;;;5079673;28;20620;-82
2023/03/30 11:03:15;;;;;;;7.50;6.70;;;17.00;92.70;;;;;;5084588;28;20465;-82
2023/03/30 11:05:46;;;;;;;7.43;6.20;;;16.90;92.30;;;;;;5082470;28;20916;-82
2023/03/30 11:08:25;;;;;;;9.83;6.47;;;16.80;92.00;;;;;;5084790;28;20452;-82
2023/03/30 11:10:55;;;;;;;10.60;6.97;;;16.80;92.10;;;;;;5083164;28;20510;-81
2023/03/30 11:13:30;;;;;;;13.67;8.37;;;16.90;92.20;;;;;;5080549;28;20966;-82
2023/03/30 11:16:01;;;;;;;18.00;12.10;;;16.90;91.80;;;;;;5082960;28;20432;-82
2023/03/30 11:19:19;;;;;;;9.20;7.07;;;16.70;92.20;;;;;;5082156;28;20472;-82
2023/03/30 11:21:57;;;;;;;6.50;5.27;;;16.70;92.20;;;;;;5024249;28;20501;-82
2023/03/30 11:24:26;;;;;;;6.67;6.00;;;16.70;92.50;;;;;;5018644;28;21212;-82
2023/03/30 11:27:03;;;;;;;9.83;6.10;;;16.80;92.90;;;;;;5067902;28;20484;-81
2023/03/30 11:29:33;;;;;;;12.40;6.53;;;16.80;92.30;;;;;;5079145;28;20535;-81
2023/03/30 11:32:26;;;;;;;10.17;6.07;;;16.50;92.50;;;;;;5099365;28;20452;-81
2023/03/30 11:35:16;;;;;;;9.33;5.60;;;16.40;92.90;;;;;;5086892;28;20498;-82
2023/03/30 11:37:57;;;;;;;5.10;4.27;;;16.40;92.90;;;;;;5085665;28;20965;-81
2023/03/30 11:40:27;;;;;;;7.63;5.50;;;16.40;93.30;;;;;;5085583;28;20425;-81
2023/03/30 11:42:53;;;;;;;6.27;5.00;;;16.50;93.20;;;;;;5086310;28;20476;-80
2023/03/30 11:45:47;;;;;;;5.47;4.87;;;16.60;93.50;;;;;;5088635;28;20936;-81
2023/03/30 11:48:25;;;;;;;6.37;5.77;;;16.70;93.00;;;;;;5083958;28;20513;-81
2023/03/30 11:51:03;;;;;;;8.17;5.70;;;16.80;93.50;;;;;;5086151;28;20830;-80
2023/03/30 11:53:59;;;;;;;5.53;4.60;;;17.00;93.60;;;;;;5086080;28;20496;-81
2023/03/30 11:56:49;;;;;;;5.43;4.53;;;17.20;93.20;;;;;;5081503;28;20421;-81
2023/03/30 12:00:07;;;;;;;4.83;4.33;;;17.60;92.50;;;;;;5085205;28;20424;-81
2023/03/30 12:03:00;;;;;;;8.97;4.60;;;17.90;93.00;;;;;;5085396;28;20840;-81
2023/03/30 12:05:43;;;;;;;6.03;4.40;;;18.10;92.00;;;;;;5085652;28;20425;-81
2023/03/30 12:08:37;;;;;;;5.67;4.07;;;18.20;92.00;;;;;;5088899;28;20441;-81
2023/03/30 12:11:14;;;;;;;6.13;4.33;;;18.40;91.80;;;;;;5088220;28;20841;-81
2023/03/30 12:13:40;;;;;;;5.80;4.37;;;18.60;91.40;;;;;;5086992;28;21000;-81
2023/03/30 12:16:12;;;;;;;7.97;4.97;;;18.70;91.40;;;;;;5088519;28;20529;-81
2023/03/30 12:19:18;;;;;;;5.77;4.70;;;18.80;91.20;;;;;;5090865;28;20445;-81
2023/03/30 12:22:08;;;;;;;5.20;4.47;;;18.70;91.40;;;;;;5031406;28;20598;-81
2023/03/30 12:24:46;;;;;;;6.57;4.80;;;18.40;90.80;;;;;;5083165;28;20437;-82
2023/03/30 12:27:12;;;;;;;7.50;4.90;;;17.90;91.10;;;;;;5084120;28;20972;-81
2023/03/30 12:29:52;;;;;;;6.30;4.07;;;17.80;91.70;;;;;;5086776;28;20449;-81
2023/03/30 12:32:22;;;;;;;6.37;4.50;;;17.80;91.40;;;;;;5093024;28;20199;-81
2023/03/30 12:34:48;;;;;;;4.63;3.97;;;18.10;91.50;;;;;;5086926;28;20542;-82
2023/03/30 12:37:21;;;;;;;9.10;4.60;;;18.10;91.30;;;;;;5087918;28;20967;-81
2023/03/30 12:39:54;;;;;;;10.13;4.33;;;18.10;91.10;;;;;;5080366;28;20191;-82
2023/03/30 12:42:35;;;;;;;6.63;4.50;;;18.20;91.20;;;;;;5088803;28;20485;-82
2023/03/30 12:45:29;;;;;;;6.80;4.90;;;18.20;90.80;;;;;;5091180;28;20430;-82
2023/03/30 12:47:57;;;;;;;7.10;5.07;;;18.10;91.20;;;;;;5091454;28;20485;-81
2023/03/30 12:50:53;;;;;;;6.67;4.70;;;18.30;91.60;;;;;;5085312;28;20863;-82
2023/03/30 12:53:37;;;;;;;4.80;4.10;;;18.50;91.30;;;;;;5094663;28;20858;-82
2023/03/30 12:56:13;;;;;;;5.50;4.83;;;18.50;91.70;;;;;;5087226;28;20435;-82
2023/03/30 12:59:21;;;;;;;7.80;5.17;;;18.50;91.00;;;;;;5086898;28;20465;-82
2023/03/30 13:02:05;;;;;;;14.47;9.47;;;18.30;91.00;;;;;;5080114;28;20459;-82
2023/03/30 13:04:38;;;;;;;9.90;6.87;;;17.90;91.10;;;;;;5093443;28;20471;-81
2023/03/30 13:07:35;;;;;;;13.20;8.60;;;17.80;91.20;;;;;;5087044;28;20791;-81
2023/03/30 13:10:29;;;;;;;21.30;14.27;;;17.70;91.70;;;;;;5085670;28;20547;-81